Time;durP1;ratioP1;P1;durP2;ratioP2;P2;SDS_P1;SDS_P2;PMS_P1;PMS_P2;Temp;Humidity;BMP_temperature;BMP_pressure;BME280_temperature;BME280_humidity;BME280_pressure;Samples;Min_cycle;Max_cycle;Signal;HPM_P1;HPM_P2
2023/12/22 00:01:30;;;;;;;0.20;0.20;;;;;;;;;;5039504;28;20512;-71
2023/12/22 00:03:58;;;;;;;0.50;0.30;;;;;;;;;;5044476;28;20425;-71
2023/12/22 00:06:25;;;;;;;1.00;0.52;;;;;;;;;;5044365;28;21195;-71
2023/12/22 00:08:55;;;;;;;1.90;0.35;;;;;;;;;;5042412;28;20439;-71
2023/12/22 00:11:22;;;;;;;0.20;0.20;;;;;;;;;;5039639;28;20463;-71
2023/12/22 00:13:49;;;;;;;0.17;0.10;;;;;;;;;;5034401;28;20427;-71
2023/12/22 00:16:19;;;;;;;0.70;0.30;;;;;;;;;;5042134;28;20461;-71
2023/12/22 00:18:46;;;;;;;0.45;0.30;;;;;;;;;;5037643;28;20425;-71
2023/12/22 00:21:13;;;;;;;0.30;0.30;;;;;;;;;;5048257;28;20448;-71
2023/12/22 00:23:40;;;;;;;0.38;0.30;;;;;;;;;;5042514;28;20429;-71
2023/12/22 00:26:07;;;;;;;0.20;0.20;;;;;;;;;;5036066;28;20470;-71
2023/12/22 00:28:35;;;;;;;0.30;0.30;;;;;;;;;;5038044;28;20429;-71
2023/12/22 00:31:04;;;;;;;0.20;0.20;;;;;;;;;;5040133;28;20429;-72
2023/12/22 00:33:31;;;;;;;0.30;0.20;;;;;;;;;;5035993;28;20921;-72
2023/12/22 00:35:59;;;;;;;0.30;0.20;;;;;;;;;;5044094;28;20484;-72
2023/12/22 00:38:29;;;;;;;0.17;0.17;;;;;;;;;;5040357;28;20512;-72
2023/12/22 00:40:56;;;;;;;0.40;0.20;;;;;;;;;;5044559;28;20453;-72
2023/12/22 00:43:26;;;;;;;0.90;0.40;;;;;;;;;;5042400;28;20432;-72
2023/12/22 00:45:53;;;;;;;0.50;0.20;;;;;;;;;;5035414;28;20441;-71
2023/12/22 00:48:20;;;;;;;0.30;0.30;;;;;;;;;;5035649;28;20431;-71
2023/12/22 00:50:51;;;;;;;1.85;0.55;;;;;;;;;;5036960;28;20437;-70
2023/12/22 00:53:18;;;;;;;0.70;0.40;;;;;;;;;;5027524;28;20582;-73
2023/12/22 00:55:45;;;;;;;0.30;0.30;;;;;;;;;;5032558;28;20426;-72
2023/12/22 00:58:13;;;;;;;2.20;0.65;;;;;;;;;;5036181;28;20484;-71
2023/12/22 01:00:40;;;;;;;1.27;0.50;;;;;;;;;;5028011;28;21165;-69
2023/12/22 01:03:11;;;;;;;1.45;0.40;;;;;;;;;;5040812;28;20467;-71
2023/12/22 01:05:42;;;;;;;0.82;0.40;;;;;;;;;;5043547;28;20439;-71
2023/12/22 01:08:09;;;;;;;1.08;0.40;;;;;;;;;;5034708;28;20421;-71
2023/12/22 01:10:36;;;;;;;1.65;0.40;;;;;;;;;;5047186;28;20518;-73
2023/12/22 01:13:03;;;;;;;1.40;0.40;;;;;;;;;;5044816;28;20425;-71
2023/12/22 01:15:31;;;;;;;0.40;0.40;;;;;;;;;;5037173;28;20439;-69
2023/12/22 01:17:58;;;;;;;2.53;0.50;;;;;;;;;;5041997;28;20530;-70
2023/12/22 01:20:25;;;;;;;2.50;0.52;;;;;;;;;;5039846;28;21530;-70
2023/12/22 01:22:52;;;;;;;0.98;0.52;;;;;;;;;;5029946;28;21016;-70
2023/12/22 01:25:19;;;;;;;0.43;0.40;;;;;;;;;;5031374;28;20429;-70
2023/12/22 01:27:48;;;;;;;0.80;0.50;;;;;;;;;;5031592;28;20439;-69
2023/12/22 01:30:15;;;;;;;1.00;0.40;;;;;;;;;;5035347;28;21150;-71
2023/12/22 01:32:42;;;;;;;0.47;0.32;;;;;;;;;;5042814;28;20520;-71
2023/12/22 01:35:10;;;;;;;1.33;0.55;;;;;;;;;;5029466;28;20445;-70
2023/12/22 01:37:37;;;;;;;2.42;0.47;;;;;;;;;;5031113;28;20515;-70
2023/12/22 01:40:05;;;;;;;0.80;0.40;;;;;;;;;;5030284;28;20453;-71
2023/12/22 01:42:32;;;;;;;1.63;0.38;;;;;;;;;;5033016;28;20989;-71
2023/12/22 01:44:59;;;;;;;2.05;0.60;;;;;;;;;;5037023;28;20903;-71
2023/12/22 01:47:27;;;;;;;1.58;0.50;;;;;;;;;;5031297;28;20438;-71
2023/12/22 01:49:54;;;;;;;1.50;0.45;;;;;;;;;;5034416;28;20448;-72
2023/12/22 01:52:25;;;;;;;1.05;0.47;;;;;;;;;;5031250;28;20464;-70
2023/12/22 01:54:54;;;;;;;0.50;0.50;;;;;;;;;;5037415;28;20520;-72
2023/12/22 01:57:22;;;;;;;0.55;0.40;;;;;;;;;;5036952;28;20441;-71
2023/12/22 01:59:50;;;;;;;2.35;0.50;;;;;;;;;;5043460;28;20534;-70
2023/12/22 02:02:20;;;;;;;0.43;0.40;;;;;;;;;;5033567;28;20758;-70
2023/12/22 02:04:47;;;;;;;0.43;0.43;;;;;;;;;;5033848;28;20504;-71
2023/12/22 02:07:18;;;;;;;0.90;0.40;;;;;;;;;;5044315;28;20512;-72
2023/12/22 02:09:45;;;;;;;1.50;0.65;;;;;;;;;;5036736;28;20438;-71
2023/12/22 02:12:12;;;;;;;1.02;0.40;;;;;;;;;;5045272;28;20433;-71
2023/12/22 02:14:40;;;;;;;2.25;0.65;;;;;;;;;;5047892;28;20429;-71
2023/12/22 02:17:11;;;;;;;3.67;0.63;;;;;;;;;;5046347;28;20508;-71
2023/12/22 02:19:38;;;;;;;0.80;0.40;;;;;;;;;;5046918;28;20486;-71
2023/12/22 02:22:06;;;;;;;0.50;0.38;;;;;;;;;;5040369;28;20429;-71
2023/12/22 02:24:36;;;;;;;0.70;0.40;;;;;;;;;;5040332;28;20438;-71
2023/12/22 02:27:18;;;;;;;0.40;0.40;;;;;;;;;;5039891;28;20968;-71
2023/12/22 02:29:50;;;;;;;1.50;0.30;;;;;;;;;;5045327;28;20518;-71
2023/12/22 02:32:22;;;;;;;1.00;0.50;;;;;;;;;;5035425;28;20430;-71
2023/12/22 02:34:51;;;;;;;0.82;0.30;;;;;;;;;;5044782;28;20512;-70
2023/12/22 02:37:19;;;;;;;0.50;0.40;;;;;;;;;;5041468;28;20421;-70
2023/12/22 02:39:47;;;;;;;0.30;0.30;;;;;;;;;;5040585;28;20499;-70
2023/12/22 02:42:14;;;;;;;1.90;0.30;;;;;;;;;;5045702;28;20464;-69
2023/12/22 02:44:41;;;;;;;1.38;0.57;;;;;;;;;;5039792;28;20476;-72
2023/12/22 02:47:09;;;;;;;1.00;0.40;;;;;;;;;;5048021;28;20425;-70
2023/12/22 02:49:36;;;;;;;0.60;0.40;;;;;;;;;;5037581;28;20438;-69
2023/12/22 02:52:03;;;;;;;1.60;0.50;;;;;;;;;;5058263;28;20423;-70
2023/12/22 02:54:31;;;;;;;1.65;0.47;;;;;;;;;;5041149;28;20479;-69
2023/12/22 02:57:00;;;;;;;0.98;0.40;;;;;;;;;;5037194;28;20925;-70
2023/12/22 02:59:28;;;;;;;2.63;0.50;;;;;;;;;;5050377;28;20429;-69
2023/12/22 03:01:56;;;;;;;1.73;0.50;;;;;;;;;;5029907;28;20430;-70
2023/12/22 03:04:23;;;;;;;2.58;0.47;;;;;;;;;;5034467;28;20821;-69
2023/12/22 03:06:50;;;;;;;1.25;0.40;;;;;;;;;;5043019;28;20437;-70
2023/12/22 03:09:17;;;;;;;2.08;0.68;;;;;;;;;;5036959;28;20443;-69
2023/12/22 03:11:45;;;;;;;0.80;0.50;;;;;;;;;;5029802;28;20558;-69
2023/12/22 03:14:12;;;;;;;2.75;0.60;;;;;;;;;;5033176;28;20434;-69
2023/12/22 03:16:40;;;;;;;1.60;0.45;;;;;;;;;;5039791;28;20524;-69
2023/12/22 03:19:09;;;;;;;1.10;0.47;;;;;;;;;;5039744;28;20422;-70
2023/12/22 03:21:36;;;;;;;2.28;0.45;;;;;;;;;;5041904;28;20434;-70
2023/12/22 03:24:03;;;;;;;0.98;0.40;;;;;;;;;;5039221;28;20429;-70
2023/12/22 03:26:31;;;;;;;2.20;0.50;;;;;;;;;;5043421;28;20433;-71
2023/12/22 03:28:58;;;;;;;0.80;0.50;;;;;;;;;;5035817;28;20445;-70
2023/12/22 03:31:26;;;;;;;1.00;0.50;;;;;;;;;;5038198;28;20539;-70
2023/12/22 03:33:56;;;;;;;0.90;0.50;;;;;;;;;;5045825;28;20440;-69
2023/12/22 03:36:23;;;;;;;2.17;0.43;;;;;;;;;;5038974;28;20443;-70
2023/12/22 03:38:50;;;;;;;4.75;0.90;;;;;;;;;;5047067;28;20429;-70
2023/12/22 03:41:18;;;;;;;1.60;0.70;;;;;;;;;;5044712;28;20429;-70
2023/12/22 03:43:45;;;;;;;2.30;0.90;;;;;;;;;;5034568;28;20431;-71
2023/12/22 03:46:12;;;;;;;6.07;1.00;;;;;;;;;;5041004;28;20508;-70
2023/12/22 03:48:39;;;;;;;4.13;1.00;;;;;;;;;;5036371;28;20433;-71
2023/12/22 03:51:07;;;;;;;2.97;0.77;;;;;;;;;;5038092;28;20434;-70
2023/12/22 03:53:34;;;;;;;5.47;0.90;;;;;;;;;;5040660;28;20616;-70
2023/12/22 03:56:01;;;;;;;2.28;0.80;;;;;;;;;;5038311;28;20423;-70
2023/12/22 03:58:29;;;;;;;4.68;1.00;;;;;;;;;;5045619;28;20424;-70
2023/12/22 04:00:57;;;;;;;2.67;0.60;;;;;;;;;;5036827;28;20483;-70
2023/12/22 04:03:25;;;;;;;3.33;0.75;;;;;;;;;;5042353;28;20508;-70
2023/12/22 04:05:52;;;;;;;1.77;0.68;;;;;;;;;;5045687;28;20530;-70
2023/12/22 04:08:20;;;;;;;4.25;0.90;;;;;;;;;;5042065;28;20434;-70
2023/12/22 04:10:48;;;;;;;2.45;0.82;;;;;;;;;;5044209;28;20854;-70
2023/12/22 04:13:15;;;;;;;3.10;0.82;;;;;;;;;;5030863;28;20505;-70
2023/12/22 04:15:42;;;;;;;3.22;0.73;;;;;;;;;;5038814;28;20428;-70
2023/12/22 04:18:09;;;;;;;2.90;0.80;;;;;;;;;;5043259;28;20453;-70
2023/12/22 04:20:36;;;;;;;1.95;0.70;;;;;;;;;;5029598;28;20434;-70
2023/12/22 04:23:04;;;;;;;2.53;0.90;;;;;;;;;;5039945;28;20465;-70
2023/12/22 04:25:32;;;;;;;3.63;1.17;;;;;;;;;;5034881;28;20901;-70
2023/12/22 04:27:59;;;;;;;1.92;1.05;;;;;;;;;;5041629;28;20443;-71
2023/12/22 04:30:27;;;;;;;2.22;0.95;;;;;;;;;;5039496;28;20483;-71
2023/12/22 04:32:58;;;;;;;3.03;0.73;;;;;;;;;;5034587;28;20494;-71
2023/12/22 04:35:26;;;;;;;2.38;0.70;;;;;;;;;;5036825;28;20512;-70
2023/12/22 04:37:53;;;;;;;0.95;0.50;;;;;;;;;;5033234;28;20996;-70
2023/12/22 04:40:21;;;;;;;1.83;0.60;;;;;;;;;;5036240;28;20870;-71
2023/12/22 04:42:48;;;;;;;2.00;0.88;;;;;;;;;;5041187;28;20440;-70
2023/12/22 04:45:17;;;;;;;2.45;0.98;;;;;;;;;;5037682;28;20515;-71
2023/12/22 04:47:44;;;;;;;1.60;0.80;;;;;;;;;;5033670;28;20521;-70
2023/12/22 04:50:11;;;;;;;1.60;0.60;;;;;;;;;;5034102;28;20438;-71
2023/12/22 04:52:38;;;;;;;2.50;0.70;;;;;;;;;;5033712;28;20433;-70
2023/12/22 04:55:06;;;;;;;2.40;0.75;;;;;;;;;;5043125;28;20429;-70
2023/12/22 04:57:33;;;;;;;3.00;0.98;;;;;;;;;;5032139;28;20421;-69
2023/12/22 05:00:01;;;;;;;1.77;0.55;;;;;;;;;;5040422;28;20516;-70
2023/12/22 05:02:29;;;;;;;3.78;0.73;;;;;;;;;;5032824;28;20933;-70
2023/12/22 05:04:56;;;;;;;2.78;0.95;;;;;;;;;;5029093;28;20537;-70
2023/12/22 05:07:23;;;;;;;2.83;1.00;;;;;;;;;;5036558;28;20913;-70
2023/12/22 05:09:52;;;;;;;2.47;0.77;;;;;;;;;;5029028;28;20431;-70
2023/12/22 05:12:22;;;;;;;3.00;1.10;;;;;;;;;;5034310;28;20479;-70
2023/12/22 05:14:49;;;;;;;2.28;0.90;;;;;;;;;;5036664;28;20424;-69
2023/12/22 05:17:17;;;;;;;5.63;1.05;;;;;;;;;;5037522;28;20426;-72
2023/12/22 05:19:47;;;;;;;3.65;1.30;;;;;;;;;;5036793;28;20438;-70
2023/12/22 05:22:14;;;;;;;2.93;0.73;;;;;;;;;;5033674;28;20434;-71
2023/12/22 05:24:41;;;;;;;2.60;0.98;;;;;;;;;;5036205;28;20448;-70
2023/12/22 05:27:09;;;;;;;1.55;0.80;;;;;;;;;;5035926;28;20441;-69
2023/12/22 05:29:36;;;;;;;1.25;0.70;;;;;;;;;;5044188;28;20952;-70
2023/12/22 05:32:03;;;;;;;4.32;1.00;;;;;;;;;;5043781;28;20458;-70
2023/12/22 05:34:31;;;;;;;3.05;0.90;;;;;;;;;;5034673;28;20938;-69
2023/12/22 05:36:58;;;;;;;4.43;1.00;;;;;;;;;;5040651;28;20435;-70
2023/12/22 05:39:25;;;;;;;4.93;0.93;;;;;;;;;;5028723;28;20504;-71
2023/12/22 05:41:52;;;;;;;2.10;0.68;;;;;;;;;;5046016;28;20437;-70
2023/12/22 05:44:19;;;;;;;3.13;0.70;;;;;;;;;;5037912;28;20527;-70
2023/12/22 05:46:50;;;;;;;1.87;0.90;;;;;;;;;;5042498;28;20520;-70
2023/12/22 05:49:17;;;;;;;1.92;0.57;;;;;;;;;;5045705;28;20457;-71
2023/12/22 05:51:45;;;;;;;1.60;0.50;;;;;;;;;;5048065;28;20848;-72
2023/12/22 05:54:12;;;;;;;2.33;0.63;;;;;;;;;;5038767;28;20435;-71
2023/12/22 05:56:40;;;;;;;1.83;0.60;;;;;;;;;;5048806;28;20785;-70
2023/12/22 05:59:07;;;;;;;1.50;0.60;;;;;;;;;;5047215;28;20425;-69
2023/12/22 06:01:34;;;;;;;2.42;0.82;;;;;;;;;;5048298;28;20429;-71
2023/12/22 06:04:02;;;;;;;1.90;0.70;;;;;;;;;;5038972;28;20434;-69
2023/12/22 06:06:29;;;;;;;2.55;0.90;;;;;;;;;;5040760;28;20430;-69
2023/12/22 06:08:57;;;;;;;1.80;0.80;;;;;;;;;;5039203;28;20517;-69
2023/12/22 06:11:24;;;;;;;2.63;0.70;;;;;;;;;;5039094;28;20943;-69
2023/12/22 06:13:51;;;;;;;2.20;0.70;;;;;;;;;;5044904;28;20475;-69
2023/12/22 06:16:18;;;;;;;1.77;0.87;;;;;;;;;;5045206;28;20957;-70
2023/12/22 06:18:45;;;;;;;1.00;0.70;;;;;;;;;;5040377;28;20461;-70
2023/12/22 06:21:15;;;;;;;2.40;0.90;;;;;;;;;;5044901;28;20784;-70
2023/12/22 06:23:42;;;;;;;3.80;0.87;;;;;;;;;;5043637;28;20842;-70
2023/12/22 06:26:10;;;;;;;3.90;1.05;;;;;;;;;;5037665;28;20522;-69
2023/12/22 06:28:39;;;;;;;2.22;0.80;;;;;;;;;;5045711;28;20911;-69
2023/12/22 06:31:07;;;;;;;2.23;1.07;;;;;;;;;;5044285;28;20441;-70
2023/12/22 06:33:34;;;;;;;2.20;0.90;;;;;;;;;;5033178;28;21256;-70
2023/12/22 06:36:02;;;;;;;4.35;1.10;;;;;;;;;;5030060;28;20438;-70
2023/12/22 06:38:29;;;;;;;2.72;1.00;;;;;;;;;;5043145;28;20520;-69
2023/12/22 06:40:56;;;;;;;3.85;0.68;;;;;;;;;;5044841;28;21076;-69
2023/12/22 06:43:24;;;;;;;3.33;0.88;;;;;;;;;;5038913;28;20454;-70
2023/12/22 06:45:54;;;;;;;3.13;0.90;;;;;;;;;;5037352;28;20463;-69
2023/12/22 06:48:26;;;;;;;5.28;1.10;;;;;;;;;;5036100;28;21198;-70
2023/12/22 06:50:54;;;;;;;2.58;0.82;;;;;;;;;;5041035;28;20830;-70
2023/12/22 06:53:21;;;;;;;3.40;0.95;;;;;;;;;;5037506;28;20543;-70
2023/12/22 06:55:52;;;;;;;4.20;1.00;;;;;;;;;;5040658;28;20537;-70
2023/12/22 06:58:21;;;;;;;3.90;1.17;;;;;;;;;;5025787;28;20460;-69
2023/12/22 07:00:48;;;;;;;3.55;1.15;;;;;;;;;;5031482;28;20430;-68
2023/12/22 07:03:21;;;;;;;3.07;1.23;;;;;;;;;;5040967;28;20433;-69
2023/12/22 07:05:49;;;;;;;4.18;1.20;;;;;;;;;;5039884;28;20519;-69
2023/12/22 07:08:16;;;;;;;6.53;1.42;;;;;;;;;;5044905;28;20441;-69
2023/12/22 07:10:45;;;;;;;4.00;1.30;;;;;;;;;;5022113;28;20473;-69
2023/12/22 07:13:13;;;;;;;4.68;1.27;;;;;;;;;;5030281;28;20513;-69
2023/12/22 07:15:40;;;;;;;6.05;1.80;;;;;;;;;;5040929;28;20429;-69
2023/12/22 07:18:08;;;;;;;4.88;1.20;;;;;;;;;;5050044;28;20433;-68
2023/12/22 07:20:36;;;;;;;7.05;1.50;;;;;;;;;;5042049;28;20441;-68
2023/12/22 07:23:03;;;;;;;7.30;1.47;;;;;;;;;;5031915;28;20430;-68
2023/12/22 07:25:35;;;;;;;4.72;1.33;;;;;;;;;;5034288;28;20438;-69
2023/12/22 07:28:02;;;;;;;5.63;1.40;;;;;;;;;;5041006;28;20433;-69
2023/12/22 07:30:29;;;;;;;6.07;1.50;;;;;;;;;;5044226;28;20496;-69
2023/12/22 07:32:56;;;;;;;4.25;1.25;;;;;;;;;;5042962;28;20425;-69
2023/12/22 07:35:29;;;;;;;6.15;1.40;;;;;;;;;;5037277;28;20452;-69
2023/12/22 07:37:56;;;;;;;6.35;1.30;;;;;;;;;;5040582;28;20903;-70
2023/12/22 07:40:24;;;;;;;4.72;1.40;;;;;;;;;;5024085;28;20463;-70
2023/12/22 07:42:52;;;;;;;4.73;1.40;;;;;;;;;;5039131;28;20483;-69
2023/12/22 07:45:20;;;;;;;3.78;1.20;;;;;;;;;;5044028;28;20447;-69
2023/12/22 07:47:47;;;;;;;5.40;1.60;;;;;;;;;;5038133;28;20438;-70
2023/12/22 07:50:15;;;;;;;7.97;1.58;;;;;;;;;;5030032;28;20439;-69
2023/12/22 07:52:45;;;;;;;3.53;1.38;;;;;;;;;;5037905;28;20551;-70
2023/12/22 07:55:16;;;;;;;3.75;1.50;;;;;;;;;;5037586;28;20440;-70
2023/12/22 07:57:48;;;;;;;7.40;2.00;;;;;;;;;;5033533;28;20489;-70
2023/12/22 08:00:18;;;;;;;5.68;1.70;;;;;;;;;;5033557;28;20435;-69
2023/12/22 08:02:48;;;;;;;6.50;1.37;;;;;;;;;;5029982;28;20795;-70
2023/12/22 08:05:16;;;;;;;4.18;1.13;;;;;;;;;;5030195;28;21105;-70
2023/12/22 08:07:45;;;;;;;5.45;1.25;;;;;;;;;;5040142;28;20437;-70
2023/12/22 08:10:13;;;;;;;3.17;1.08;;;;;;;;;;5042424;28;20443;-70
2023/12/22 08:12:40;;;;;;;5.10;1.15;;;;;;;;;;5034970;28;20429;-69
2023/12/22 08:15:10;;;;;;;6.47;1.37;;;;;;;;;;5045044;28;21228;-69
2023/12/22 08:17:51;;;;;;;5.05;1.08;;;;;;;;;;5046449;28;20429;-69
2023/12/22 08:20:26;;;;;;;6.63;1.23;;;;;;;;;;5034905;28;21614;-70
2023/12/22 08:22:59;;;;;;;5.20;1.17;;;;;;;;;;5034656;28;21146;-70
2023/12/22 08:25:32;;;;;;;3.63;1.10;;;;;;;;;;5045682;28;20457;-71
2023/12/22 08:27:59;;;;;;;2.83;1.23;;;;;;;;;;5044784;28;20433;-71
2023/12/22 08:30:28;;;;;;;4.93;1.38;;;;;;;;;;5045950;28;20978;-71
2023/12/22 08:32:56;;;;;;;4.53;1.35;;;;;;;;;;5045348;28;20527;-70
2023/12/22 08:35:25;;;;;;;5.60;1.33;;;;;;;;;;5039653;28;20430;-70
2023/12/22 08:37:52;;;;;;;4.88;1.10;;;;;;;;;;5038485;28;20431;-70
2023/12/22 08:40:25;;;;;;;4.90;1.27;;;;;;;;;;5034950;28;20542;-70
2023/12/22 08:42:54;;;;;;;4.60;1.00;;;;;;;;;;5040334;28;21005;-70
2023/12/22 08:45:22;;;;;;;7.82;1.48;;;;;;;;;;5037494;28;20433;-70
2023/12/22 08:47:50;;;;;;;2.58;0.82;;;;;;;;;;5034237;28;20512;-70
2023/12/22 08:50:17;;;;;;;3.45;1.15;;;;;;;;;;5043165;28;20440;-70
2023/12/22 08:52:44;;;;;;;3.33;1.20;;;;;;;;;;5044822;28;20437;-70
2023/12/22 08:55:11;;;;;;;1.85;0.90;;;;;;;;;;5034054;28;20487;-70
2023/12/22 08:57:40;;;;;;;4.70;0.98;;;;;;;;;;5036129;28;20432;-70
2023/12/22 09:00:19;;;;;;;3.50;1.10;;;;;;;;;;5031285;28;20437;-70
2023/12/22 09:02:47;;;;;;;4.93;1.50;;;;;;;;;;5026202;28;20437;-69
2023/12/22 09:05:15;;;;;;;2.58;1.40;;;;;;;;;;5039709;28;20545;-69
2023/12/22 09:07:44;;;;;;;5.32;1.30;;;;;;;;;;5044190;28;20429;-70
2023/12/22 09:10:12;;;;;;;5.60;1.20;;;;;;;;;;5030909;28;20429;-70
2023/12/22 09:12:39;;;;;;;6.07;1.52;;;;;;;;;;5042152;28;20432;-69
2023/12/22 09:15:10;;;;;;;3.13;1.33;;;;;;;;;;5031494;28;20426;-70
2023/12/22 09:17:37;;;;;;;6.13;1.70;;;;;;;;;;5038557;28;20869;-70
2023/12/22 09:20:04;;;;;;;5.35;1.60;;;;;;;;;;5046462;28;20439;-70
2023/12/22 09:22:31;;;;;;;5.57;1.38;;;;;;;;;;5039453;28;20775;-70
2023/12/22 09:24:59;;;;;;;4.32;1.30;;;;;;;;;;5048323;28;20433;-71
2023/12/22 09:27:30;;;;;;;4.55;1.40;;;;;;;;;;5037663;28;20430;-69
2023/12/22 09:29:57;;;;;;;4.32;1.00;;;;;;;;;;5037367;28;20425;-70
2023/12/22 09:32:24;;;;;;;4.00;1.10;;;;;;;;;;5040727;28;20453;-71
2023/12/22 09:34:54;;;;;;;4.20;1.23;;;;;;;;;;5037233;28;21115;-70
2023/12/22 09:37:22;;;;;;;2.97;1.00;;;;;;;;;;5038830;28;21057;-70
2023/12/22 09:39:49;;;;;;;6.82;1.33;;;;;;;;;;5037589;28;20463;-70
2023/12/22 09:42:16;;;;;;;3.78;1.48;;;;;;;;;;5042008;28;20453;-70
2023/12/22 09:44:43;;;;;;;5.25;1.40;;;;;;;;;;5038610;28;21161;-69
2023/12/22 09:47:12;;;;;;;3.92;1.40;;;;;;;;;;5041969;28;21155;-70
2023/12/22 09:49:40;;;;;;;5.50;1.45;;;;;;;;;;5042146;28;20460;-69
2023/12/22 09:52:08;;;;;;;6.78;1.40;;;;;;;;;;5046490;28;20528;-70
2023/12/22 09:54:36;;;;;;;4.10;1.38;;;;;;;;;;5042167;28;20462;-71
2023/12/22 09:57:04;;;;;;;3.50;1.33;;;;;;;;;;5040673;28;20455;-70
2023/12/22 09:59:49;;;;;;;5.57;1.40;;;;;;;;;;5043839;28;20929;-71
2023/12/22 10:02:16;;;;;;;6.53;1.58;;;;;;;;;;5039248;28;20875;-71
2023/12/22 10:04:44;;;;;;;7.32;1.88;;;;;;;;;;5036944;28;20517;-70
2023/12/22 10:07:14;;;;;;;7.63;1.95;;;;;;;;;;5038750;28;20449;-70
2023/12/22 10:09:42;;;;;;;8.55;2.03;;;;;;;;;;5040469;28;20435;-70
2023/12/22 10:12:12;;;;;;;12.20;2.60;;;;;;;;;;5035542;28;20842;-71
2023/12/22 10:14:42;;;;;;;9.32;2.35;;;;;;;;;;5041747;28;20980;-70
2023/12/22 10:17:09;;;;;;;5.30;1.98;;;;;;;;;;5037252;28;20457;-70
2023/12/22 10:19:36;;;;;;;9.00;2.38;;;;;;;;;;5038831;28;20429;-70
2023/12/22 10:22:03;;;;;;;8.93;2.47;;;;;;;;;;5027302;28;20434;-69
2023/12/22 10:24:43;;;;;;;9.05;2.10;;;;;;;;;;5036536;28;20456;-69
2023/12/22 10:27:11;;;;;;;7.45;2.35;;;;;;;;;;5031491;28;20427;-69
2023/12/22 10:29:41;;;;;;;9.30;2.72;;;;;;;;;;5044049;28;20914;-69
2023/12/22 10:32:09;;;;;;;9.25;2.13;;;;;;;;;;5040891;28;20464;-70
2023/12/22 10:34:37;;;;;;;9.77;2.30;;;;;;;;;;5042346;28;20433;-69
2023/12/22 10:37:04;;;;;;;11.03;2.30;;;;;;;;;;5039322;28;20429;-70
2023/12/22 10:39:32;;;;;;;9.90;2.20;;;;;;;;;;5038757;28;20435;-70
2023/12/22 10:42:00;;;;;;;8.35;2.58;;;;;;;;;;5036148;28;20435;-70
2023/12/22 10:44:30;;;;;;;10.55;2.38;;;;;;;;;;5045624;28;20439;-70
2023/12/22 10:46:57;;;;;;;10.17;2.30;;;;;;;;;;5040719;28;20433;-70
2023/12/22 10:49:25;;;;;;;8.90;2.23;;;;;;;;;;5038136;28;20435;-70
2023/12/22 10:51:53;;;;;;;8.43;1.95;;;;;;;;;;5036907;28;20542;-70
2023/12/22 10:54:20;;;;;;;11.00;2.23;;;;;;;;;;5040098;28;20486;-70
2023/12/22 10:56:47;;;;;;;9.70;2.00;;;;;;;;;;5042611;28;20458;-70
2023/12/22 10:59:20;;;;;;;8.45;2.08;;;;;;;;;;5038406;28;20429;-70
2023/12/22 11:01:48;;;;;;;11.43;2.40;;;;;;;;;;5036356;28;20844;-70
2023/12/22 11:04:22;;;;;;;8.83;2.30;;;;;;;;;;5038440;28;20428;-70
2023/12/22 11:06:53;;;;;;;5.80;1.85;;;;;;;;;;5025169;28;20465;-69
2023/12/22 11:09:27;;;;;;;6.70;2.38;;;;;;;;;;5035357;28;20494;-69
2023/12/22 11:11:55;;;;;;;7.03;2.30;;;;;;;;;;5036992;28;20489;-69
2023/12/22 11:14:25;;;;;;;8.43;1.95;;;;;;;;;;5041051;28;20513;-69
2023/12/22 11:16:52;;;;;;;7.38;2.17;;;;;;;;;;5038425;28;20430;-69
2023/12/22 11:19:21;;;;;;;11.10;2.17;;;;;;;;;;5033685;28;20566;-71
2023/12/22 11:21:54;;;;;;;8.10;2.55;;;;;;;;;;5044320;28;21055;-69
2023/12/22 11:24:30;;;;;;;12.13;2.45;;;;;;;;;;5038968;28;20513;-68
2023/12/22 11:26:59;;;;;;;8.43;2.33;;;;;;;;;;5034719;28;20461;-69
2023/12/22 11:29:29;;;;;;;6.50;2.00;;;;;;;;;;5043168;28;20969;-69
2023/12/22 11:31:58;;;;;;;7.88;1.90;;;;;;;;;;5035865;28;20437;-69
2023/12/22 11:34:27;;;;;;;8.05;1.80;;;;;;;;;;5033733;28;20541;-69
2023/12/22 11:36:55;;;;;;;7.15;1.75;;;;;;;;;;5044476;28;20425;-69
2023/12/22 11:39:22;;;;;;;6.45;1.77;;;;;;;;;;5040901;28;20990;-69
2023/12/22 11:41:51;;;;;;;7.78;1.73;;;;;;;;;;5040081;28;20831;-68
2023/12/22 11:44:18;;;;;;;6.47;1.88;;;;;;;;;;5032976;28;20979;-70
2023/12/22 11:46:47;;;;;;;5.25;1.35;;;;;;;;;;5039311;28;20429;-69
2023/12/22 11:49:14;;;;;;;5.67;1.67;;;;;;;;;;5033449;28;20436;-69
2023/12/22 11:51:43;;;;;;;4.20;1.63;;;;;;;;;;5040124;28;20524;-69
2023/12/22 11:54:29;;;;;;;3.97;1.10;;;;;;;;;;5030260;28;20441;-71
2023/12/22 11:57:00;;;;;;;5.57;1.48;;;;;;;;;;5041044;28;20539;-69
2023/12/22 11:59:27;;;;;;;6.90;1.37;;;;;;;;;;5038909;28;20456;-69
2023/12/22 12:01:57;;;;;;;4.93;1.20;;;;;;;;;;5038195;28;20531;-70
2023/12/22 12:04:27;;;;;;;4.13;1.20;;;;;;;;;;5034226;28;20581;-69
2023/12/22 12:06:54;;;;;;;3.30;1.30;;;;;;;;;;5036987;28;20425;-69
2023/12/22 12:09:41;;;;;;;4.40;1.15;;;;;;;;;;5037546;28;20441;-71
2023/12/22 12:12:12;;;;;;;5.35;1.40;;;;;;;;;;5040348;28;20552;-69
2023/12/22 12:14:41;;;;;;;4.65;1.20;;;;;;;;;;5037180;28;20468;-70
2023/12/22 12:17:13;;;;;;;4.13;1.30;;;;;;;;;;5036125;28;20538;-70
2023/12/22 12:19:44;;;;;;;4.55;1.20;;;;;;;;;;5033604;28;20430;-69
2023/12/22 12:22:15;;;;;;;2.83;1.40;;;;;;;;;;5036807;28;20648;-69
2023/12/22 12:24:43;;;;;;;4.18;1.10;;;;;;;;;;5032354;28;20445;-69
2023/12/22 12:27:11;;;;;;;3.55;1.30;;;;;;;;;;5032051;28;20429;-70
2023/12/22 12:29:39;;;;;;;3.97;1.42;;;;;;;;;;5036188;28;20520;-69
2023/12/22 12:32:07;;;;;;;3.67;1.10;;;;;;;;;;5033935;28;20433;-69
2023/12/22 12:34:34;;;;;;;2.42;0.90;;;;;;;;;;5039408;28;20437;-69
2023/12/22 12:37:03;;;;;;;6.55;1.60;;;;;;;;;;5036151;28;20457;-69
2023/12/22 12:39:36;;;;;;;3.47;0.90;;;;;;;;;;5035759;28;20781;-69
2023/12/22 12:42:08;;;;;;;3.50;1.00;;;;;;;;;;5031632;28;20447;-69
2023/12/22 12:44:38;;;;;;;3.10;0.90;;;;;;;;;;5028591;28;20929;-70
2023/12/22 12:47:12;;;;;;;1.38;0.80;;;;;;;;;;5037488;28;21502;-69
2023/12/22 12:49:39;;;;;;;2.42;0.70;;;;;;;;;;5035327;28;20427;-69
2023/12/22 12:52:12;;;;;;;1.63;0.63;;;;;;;;;;5037156;28;20822;-69
2023/12/22 12:54:39;;;;;;;1.42;0.90;;;;;;;;;;5030989;28;20959;-69
2023/12/22 12:57:16;;;;;;;2.80;0.85;;;;;;;;;;5031777;28;20431;-71
2023/12/22 12:59:47;;;;;;;1.95;0.70;;;;;;;;;;5036233;28;20439;-69
2023/12/22 13:02:15;;;;;;;1.67;0.82;;;;;;;;;;5045090;28;20791;-70
2023/12/22 13:04:43;;;;;;;2.23;0.80;;;;;;;;;;5035602;28;20441;-70
2023/12/22 13:07:12;;;;;;;1.55;0.40;;;;;;;;;;5035060;28;20441;-69
2023/12/22 13:09:41;;;;;;;1.05;0.40;;;;;;;;;;5058685;28;21162;-70
2023/12/22 13:12:09;;;;;;;3.60;1.43;;;;;;;;;;5032363;28;20426;-70
2023/12/22 13:14:42;;;;;;;1.80;0.60;;;;;;;;;;5037476;28;20454;-69
2023/12/22 13:17:10;;;;;;;0.82;0.43;;;;;;;;;;5035663;28;20436;-69
2023/12/22 13:19:37;;;;;;;1.10;0.60;;;;;;;;;;5041803;28;20435;-69
2023/12/22 13:22:05;;;;;;;0.70;0.50;;;;;;;;;;5037404;28;20529;-69
2023/12/22 13:24:32;;;;;;;0.85;0.50;;;;;;;;;;5026707;28;21072;-69
2023/12/22 13:27:06;;;;;;;0.30;0.28;;;;;;;;;;5026541;28;20445;-69
2023/12/22 13:29:44;;;;;;;0.47;0.47;;;;;;;;;;5043600;28;20485;-69
2023/12/22 13:32:16;;;;;;;0.80;0.30;;;;;;;;;;5034228;28;20428;-69
2023/12/22 13:34:56;;;;;;;0.52;0.40;;;;;;;;;;5032946;28;20441;-69
2023/12/22 13:37:26;;;;;;;0.30;0.30;;;;;;;;;;5044712;28;20899;-69
2023/12/22 13:39:54;;;;;;;0.43;0.43;;;;;;;;;;5040857;28;20421;-69
2023/12/22 13:42:21;;;;;;;0.50;0.30;;;;;;;;;;5035847;28;20456;-69
2023/12/22 13:44:53;;;;;;;0.30;0.30;;;;;;;;;;5037437;28;20424;-69
2023/12/22 13:47:20;;;;;;;0.50;0.32;;;;;;;;;;5034210;28;20431;-69
2023/12/22 13:49:48;;;;;;;0.90;0.38;;;;;;;;;;5036078;28;20436;-69
2023/12/22 13:52:45;;;;;;;0.30;0.30;;;;;;;;;;5041396;28;20487;-69
2023/12/22 13:55:13;;;;;;;0.47;0.35;;;;;;;;;;4979723;28;20520;-69
2023/12/22 13:57:41;;;;;;;0.70;0.50;;;;;;;;;;4965309;28;20431;-69
2023/12/22 14:00:20;;;;;;;0.43;0.40;;;;;;;;;;4945582;28;20934;-69
2023/12/22 14:02:50;;;;;;;0.40;0.40;;;;;;;;;;4970306;28;20520;-69
2023/12/22 14:05:18;;;;;;;1.80;0.50;;;;;;;;;;4967297;28;20436;-68
2023/12/22 14:07:46;;;;;;;1.10;0.30;;;;;;;;;;4962743;28;20447;-69
2023/12/22 14:10:14;;;;;;;0.35;0.30;;;;;;;;;;4964475;28;20436;-68
2023/12/22 14:12:41;;;;;;;0.30;0.30;;;;;;;;;;4964979;28;20457;-69
2023/12/22 14:15:11;;;;;;;0.60;0.50;;;;;;;;;;4964368;28;21181;-69
2023/12/22 14:17:38;;;;;;;0.30;0.30;;;;;;;;;;4960798;28;20459;-69
2023/12/22 14:20:09;;;;;;;0.30;0.30;;;;;;;;;;4958555;28;20469;-70
2023/12/22 14:22:37;;;;;;;0.22;0.22;;;;;;;;;;4967913;28;20432;-68
2023/12/22 14:25:05;;;;;;;0.30;0.30;;;;;;;;;;4963151;28;20469;-68
2023/12/22 14:27:33;;;;;;;0.30;0.30;;;;;;;;;;4963170;28;20436;-68
2023/12/22 14:30:00;;;;;;;0.30;0.30;;;;;;;;;;4963504;28;20436;-68
2023/12/22 14:32:29;;;;;;;0.30;0.30;;;;;;;;;;5029027;28;20432;-68
2023/12/22 14:34:56;;;;;;;0.30;0.30;;;;;;;;;;5035831;28;20974;-69
2023/12/22 14:37:24;;;;;;;0.40;0.28;;;;;;;;;;5040547;28;20501;-69
2023/12/22 14:39:54;;;;;;;0.40;0.40;;;;;;;;;;5039379;28;20429;-69
2023/12/22 14:42:24;;;;;;;0.30;0.30;;;;;;;;;;5037817;28;21028;-69
2023/12/22 14:44:51;;;;;;;0.40;0.40;;;;;;;;;;5039163;28;20444;-70
2023/12/22 14:47:19;;;;;;;0.75;0.40;;;;;;;;;;5044120;28;20437;-68
2023/12/22 14:49:48;;;;;;;0.75;0.30;;;;;;;;;;5035169;28;20435;-69
2023/12/22 14:52:22;;;;;;;0.30;0.30;;;;;;;;;;5039839;28;20441;-71